createdAt,value
2022-10-18T00:00:15.607Z,99309.50
2022-10-18T00:01:16.975Z,99312.19
2022-10-18T00:02:18.333Z,99305.28
2022-10-18T00:03:19.949Z,99309.50
2022-10-18T00:04:21.296Z,99311.72
2022-10-18T00:05:22.596Z,99311.25
2022-10-18T00:06:23.904Z,99313.59
2022-10-18T00:07:25.198Z,99311.72
2022-10-18T00:08:26.788Z,99319.75
2022-10-18T00:09:28.164Z,99323.50
2022-10-18T00:10:29.609Z,99314.69
2022-10-18T00:11:31.116Z,99318.47
2022-10-18T00:12:34.083Z,99311.06
2022-10-18T00:13:35.813Z,99318.94
2022-10-18T00:14:37.162Z,99318.00
2022-10-18T00:15:38.441Z,99317.81
2022-10-18T00:16:40.034Z,99322.19
2022-10-18T00:17:41.522Z,99320.97
2022-10-18T00:18:43.287Z,99323.44
2022-10-18T00:19:44.669Z,99318.44
2022-10-18T00:20:46.184Z,99322.50
2022-10-18T00:21:49.593Z,99324.69
2022-10-18T00:22:50.905Z,99330.34
2022-10-18T00:23:52.764Z,99321.69
2022-10-18T00:24:54.053Z,99324.34
2022-10-18T00:26:03.463Z,99334.25
2022-10-18T00:27:04.777Z,99328.72
2022-10-18T00:28:06.049Z,99334.38
2022-10-18T00:29:07.431Z,99328.56
2022-10-18T00:30:09.020Z,99333.41
2022-10-18T00:31:18.189Z,99323.03
2022-10-18T00:32:19.502Z,99327.09
2022-10-18T00:33:20.833Z,99327.09
2022-10-18T00:34:22.115Z,99326.19
2022-10-18T00:35:23.460Z,99322.56
2022-10-18T00:36:25.078Z,99324.94
2022-10-18T00:37:26.377Z,99318.63
2022-10-18T00:38:27.673Z,99326.31
2022-10-18T00:39:28.971Z,99312.50
2022-10-18T00:40:30.304Z,99317.69
2022-10-18T00:41:32.879Z,99313.63
2022-10-18T00:42:35.075Z,99317.69
2022-10-18T00:43:56.568Z,99311.91
2022-10-18T00:45:06.875Z,99317.84
2022-10-18T00:46:08.181Z,99310.44
2022-10-18T00:47:11.593Z,99310.75
2022-10-18T00:48:14.341Z,99313.59
2022-10-18T00:49:17.206Z,99319.56
2022-10-18T00:50:19.804Z,99312.16
2022-10-18T00:51:22.633Z,99319.69
2022-10-18T00:52:27.567Z,99323.16
2022-10-18T00:53:31.701Z,99323.94
2022-10-18T00:54:34.668Z,99328.47
2022-10-18T00:55:36.000Z,99323.16
2022-10-18T00:56:37.347Z,99329.28
2022-10-18T00:57:40.535Z,99331.94
2022-10-18T00:58:42.428Z,99327.09
2022-10-18T00:59:44.431Z,99317.66
2022-10-18T01:00:45.853Z,99328.06
2022-10-18T01:01:47.215Z,99321.28
2022-10-18T01:02:48.710Z,99320.38
2022-10-18T01:03:50.947Z,99325.09
2022-10-18T01:04:52.283Z,99321.66
2022-10-18T01:05:53.566Z,99322.44
2022-10-18T01:07:00.857Z,99329.34
2022-10-18T01:08:11.277Z,99334.06
2022-10-18T01:09:16.962Z,99331.41
2022-10-18T01:10:34.867Z,99335.66
2022-10-18T01:11:42.015Z,99330.00
2022-10-18T01:12:52.394Z,99333.16
2022-10-18T01:13:53.695Z,99336.91
2022-10-18T01:15:13.910Z,99331.59
2022-10-18T01:16:25.250Z,99323.88
2022-10-18T01:17:35.749Z,99326.06
2022-10-18T01:18:54.011Z,99319.13
2022-10-18T01:19:58.299Z,99319.94
2022-10-18T01:20:59.639Z,99326.06
2022-10-18T01:22:05.521Z,99319.94
2022-10-18T01:23:10.866Z,99318.06
2022-10-18T01:24:14.845Z,99320.91
2022-10-18T01:25:19.258Z,99312.09
2022-10-18T01:26:26.541Z,99316.66
2022-10-18T01:27:43.703Z,99316.66
2022-10-18T01:28:59.399Z,99323.25
2022-10-18T01:30:19.192Z,99326.75
2022-10-18T01:31:22.083Z,99330.97
2022-10-18T01:32:26.588Z,99324.84
2022-10-18T01:33:30.762Z,99331.25
2022-10-18T01:34:34.393Z,99336.00
2022-10-18T01:35:39.185Z,99329.09
2022-10-18T01:36:42.481Z,99332.84
2022-10-18T01:37:46.306Z,99334.44
2022-10-18T01:38:48.463Z,99332.84
2022-10-18T01:39:51.978Z,99330.19
2022-10-18T01:40:54.891Z,99336.31
2022-10-18T01:41:58.164Z,99335.22
2022-10-18T01:43:00.640Z,99335.22
2022-10-18T01:44:03.132Z,99328.78
2022-10-18T01:45:06.249Z,99327.97
2022-10-18T01:46:08.441Z,99331.44
2022-10-18T01:47:10.725Z,99328.78
2022-10-18T01:48:13.092Z,99326.88
2022-10-18T01:49:14.401Z,99322.66
2022-10-18T01:50:15.731Z,99324.69
2022-10-18T01:51:23.898Z,99320.47
2022-10-18T01:52:25.402Z,99327.84
2022-10-18T01:53:28.590Z,99322.50
2022-10-18T01:54:39.628Z,99327.06
2022-10-18T01:55:43.245Z,99333.19
2022-10-18T01:56:47.669Z,99328.63
2022-10-18T01:58:08.445Z,99331.28
2022-10-18T01:59:14.956Z,99321.41
2022-10-18T02:00:18.865Z,99328.34
2022-10-18T02:01:31.163Z,99321.88
2022-10-18T02:02:41.116Z,99335.25
2022-10-18T02:03:45.495Z,99328.78
2022-10-18T02:05:05.528Z,99330.38
2022-10-18T02:06:11.415Z,99319.06
2022-10-18T02:07:12.692Z,99327.88
2022-10-18T02:08:32.886Z,99324.09
2022-10-18T02:09:44.528Z,99322.53
2022-10-18T02:10:48.381Z,99317.66
2022-10-18T02:11:52.632Z,99320.34
2022-10-18T02:12:54.967Z,99322.22
2022-10-18T02:14:03.330Z,99320.34
2022-10-18T02:15:06.034Z,99326.00
2022-10-18T02:16:10.084Z,99324.56
2022-10-18T02:17:12.308Z,99320.34
2022-10-18T02:18:17.377Z,99312.31
2022-10-18T02:20:27.850Z,99312.31
2022-10-18T02:21:29.528Z,99316.28
2022-10-18T02:22:32.819Z,99311.06
2022-10-18T02:23:34.912Z,99320.97
2022-10-18T02:24:41.640Z,99318.28
2022-10-18T02:25:43.127Z,99316.41
2022-10-18T02:26:44.465Z,99317.19
2022-10-18T02:27:45.992Z,99312.66
2022-10-18T02:28:47.800Z,99308.56
2022-10-18T02:29:49.474Z,99305.91
2022-10-18T02:31:06.600Z,99303.72
2022-10-18T02:32:07.893Z,99297.09
2022-10-18T02:33:22.431Z,99300.06
2022-10-18T02:34:27.022Z,99289.88
2022-10-18T02:35:32.056Z,99291.75
2022-10-18T02:36:36.219Z,99290.66
2022-10-18T02:37:38.759Z,99292.06
2022-10-18T02:38:41.701Z,99287.53
2022-10-18T02:39:47.668Z,99286.41
2022-10-18T02:40:48.980Z,99287.66
2022-10-18T02:41:50.380Z,99290.66
2022-10-18T02:42:55.812Z,99285.31
2022-10-18T02:43:57.222Z,99282.66
2022-10-18T02:44:58.511Z,99286.88
2022-10-18T02:45:59.839Z,99284.69
2022-10-18T02:47:01.457Z,99291.28
2022-10-18T02:48:02.759Z,99292.38
2022-10-18T02:49:04.075Z,99288.16
2022-10-18T02:50:05.674Z,99295.38
2022-10-18T02:51:06.978Z,99293.00
2022-10-18T02:52:08.275Z,99292.72
2022-10-18T02:53:09.577Z,99285.78
2022-10-18T02:54:10.858Z,99290.50
2022-10-18T02:55:12.173Z,99291.28
2022-10-18T02:56:13.460Z,99292.84
2022-10-18T02:57:14.755Z,99282.16
2022-10-18T02:58:16.088Z,99289.88
2022-10-18T02:59:17.405Z,99295.22
2022-10-18T03:00:18.756Z,99289.88
2022-10-18T03:01:20.643Z,99298.38
2022-10-18T03:02:22.443Z,99287.84
2022-10-18T03:03:23.782Z,99291.63
2022-10-18T03:04:25.169Z,99286.56
2022-10-18T03:05:26.488Z,99295.38
2022-10-18T03:06:27.914Z,99286.88
2022-10-18T03:07:29.401Z,99292.69
2022-10-18T03:08:30.800Z,99284.69
2022-10-18T03:09:32.186Z,99291.91
2022-10-18T03:10:33.487Z,99291.28
2022-10-18T03:11:34.799Z,99287.84
2022-10-18T03:12:36.087Z,99285.94
2022-10-18T03:13:37.409Z,99289.72
2022-10-18T03:14:38.709Z,99286.56
2022-10-18T03:15:39.975Z,99294.13
2022-10-18T03:16:41.269Z,99290.66
2022-10-18T03:17:42.818Z,99290.50
2022-10-18T03:18:44.370Z,99289.41
2022-10-18T03:19:45.674Z,99295.84
2022-10-18T03:20:47.002Z,99289.72
2022-10-18T03:21:48.349Z,99294.28
2022-10-18T03:22:49.683Z,99290.81
2022-10-18T03:23:51.036Z,99288.16
2022-10-18T03:24:52.344Z,99290.03
2022-10-18T03:25:53.683Z,99282.31
2022-10-18T03:26:54.989Z,99281.69
2022-10-18T03:27:56.275Z,99280.59
2022-10-18T03:28:57.668Z,99281.09
2022-10-18T03:29:59.008Z,99285.31
2022-10-18T03:31:01.102Z,99284.53
2022-10-18T03:32:02.387Z,99283.75
2022-10-18T03:33:03.683Z,99272.75
2022-10-18T03:35:27.292Z,99269.44
2022-10-18T03:36:28.582Z,99277.13
2022-10-18T03:37:30.389Z,99284.22
2022-10-18T03:38:31.696Z,99278.06
2022-10-18T03:39:33.007Z,99280.44
2022-10-18T03:40:34.332Z,99275.56
2022-10-18T03:41:35.615Z,99275.09
2022-10-18T03:42:36.917Z,99275.56
2022-10-18T03:43:38.515Z,99271.31
2022-10-18T03:44:39.787Z,99280.75
2022-10-18T03:45:41.213Z,99273.38
2022-10-18T03:46:42.543Z,99283.56
2022-10-18T03:47:43.882Z,99284.34
2022-10-18T03:48:45.195Z,99272.88
2022-10-18T03:49:46.495Z,99273.53
2022-10-18T03:50:47.771Z,99275.09
2022-10-18T03:51:49.063Z,99273.03
2022-10-18T03:52:50.350Z,99271.78
2022-10-18T03:53:51.619Z,99277.75
2022-10-18T03:54:52.962Z,99275.41
2022-10-18T03:55:55.430Z,99275.41
2022-10-18T03:56:56.705Z,99269.28
2022-10-18T03:57:58.084Z,99275.88
2022-10-18T03:58:59.405Z,99278.38
2022-10-18T04:00:00.729Z,99271.94
2022-10-18T04:01:02.048Z,99269.28
2022-10-18T04:02:04.563Z,99273.97
2022-10-18T04:03:05.932Z,99277.75
2022-10-18T04:04:07.199Z,99280.75
2022-10-18T04:05:08.709Z,99282.13
2022-10-18T04:06:10.144Z,99282.63
2022-10-18T04:07:11.533Z,99291.75
2022-10-18T04:08:13.366Z,99282.63
2022-10-18T04:09:14.672Z,99277.59
2022-10-18T04:10:15.982Z,99276.34
2022-10-18T04:11:17.414Z,99283.59
2022-10-18T04:12:18.767Z,99286.88
2022-10-18T04:13:20.282Z,99287.97
2022-10-18T04:14:21.562Z,99285.59
2022-10-18T04:15:22.888Z,99279.47
2022-10-18T04:16:24.261Z,99270.66
2022-10-18T04:17:25.595Z,99283.25
2022-10-18T04:18:26.942Z,99282.91
2022-10-18T04:19:28.228Z,99285.13
2022-10-18T04:20:29.544Z,99287.03
2022-10-18T04:21:30.902Z,99287.34
2022-10-18T04:22:32.193Z,99298.03
2022-10-18T04:23:36.373Z,99292.69
2022-10-18T04:24:40.144Z,99291.88
2022-10-18T04:25:41.417Z,99299.41
2022-10-18T04:26:42.744Z,99299.41
2022-10-18T04:27:44.099Z,99295.97
2022-10-18T04:28:45.595Z,99298.63
2022-10-18T04:29:47.035Z,99294.84
2022-10-18T04:30:51.819Z,99300.19
2022-10-18T04:31:53.111Z,99300.19
2022-10-18T04:32:54.456Z,99298.31
2022-10-18T04:34:00.835Z,99297.53
2022-10-18T04:39:23.703Z,99305.38
2022-10-18T04:40:45.008Z,99301.91
2022-10-18T04:42:22.206Z,99310.25
2022-10-18T04:43:23.893Z,99306.78
2022-10-18T04:44:40.542Z,99312.13
2022-10-18T04:46:17.069Z,99315.91
2022-10-18T04:47:23.094Z,99310.84
2022-10-18T04:54:18.653Z,99313.38
2022-10-18T04:55:20.533Z,99311.00
2022-10-18T04:56:21.954Z,99315.56
2022-10-18T04:57:23.293Z,99314.78
2022-10-18T04:58:24.634Z,99311.63
2022-10-18T04:59:26.142Z,99310.03
2022-10-18T05:00:27.537Z,99318.53
2022-10-18T05:01:29.020Z,99312.44
2022-10-18T05:02:30.745Z,99316.84
2022-10-18T05:03:32.934Z,99310.06
2022-10-18T05:04:34.260Z,99312.91
2022-10-18T05:05:49.725Z,99313.25
2022-10-18T05:06:57.059Z,99316.53
2022-10-18T05:07:58.434Z,99310.03
2022-10-18T05:08:59.811Z,99316.78
2022-10-18T05:10:01.133Z,99313.47
2022-10-18T05:11:03.288Z,99319.41
2022-10-18T05:12:04.713Z,99316.56
2022-10-18T05:13:06.041Z,99321.25
2022-10-18T05:14:07.390Z,99318.13
2022-10-18T05:15:08.946Z,99316.84
2022-10-18T05:16:10.330Z,99315.78
2022-10-18T05:17:11.668Z,99315.88
2022-10-18T05:18:13.098Z,99309.28
2022-10-18T05:19:14.457Z,99308.50
2022-10-18T05:20:15.909Z,99309.13
2022-10-18T05:21:17.317Z,99312.09
2022-10-18T05:22:18.777Z,99313.47
2022-10-18T05:23:20.111Z,99313.00
2022-10-18T05:24:24.153Z,99315.69
2022-10-18T05:25:28.314Z,99308.78
2022-10-18T05:26:29.646Z,99306.41
2022-10-18T05:27:31.027Z,99312.84
2022-10-18T05:28:41.370Z,99307.03
2022-10-18T05:29:42.957Z,99303.56
2022-10-18T05:30:44.316Z,99304.38
2022-10-18T05:31:45.732Z,99303.88
2022-10-18T05:32:47.083Z,99305.75
2022-10-18T05:33:48.531Z,99304.19
2022-10-18T05:34:50.122Z,99301.50
2022-10-18T05:35:51.462Z,99303.09
2022-10-18T05:36:53.021Z,99304.69
2022-10-18T05:37:54.384Z,99295.41
2022-10-18T05:38:56.277Z,99296.19
2022-10-18T05:39:58.207Z,99300.72
2022-10-18T05:40:59.850Z,99304.50
2022-10-18T05:42:01.222Z,99302.63
2022-10-18T05:43:02.526Z,99307.63
2022-10-18T05:44:04.757Z,99310.31
2022-10-18T05:45:06.363Z,99304.97
2022-10-18T05:46:11.870Z,99301.50
2022-10-18T05:47:16.306Z,99298.72
2022-10-18T05:48:18.257Z,99303.72
2022-10-18T05:49:19.734Z,99298.41
2022-10-18T05:50:21.194Z,99304.22
2022-10-18T05:51:22.479Z,99301.88
2022-10-18T05:52:23.861Z,99304.84
2022-10-18T05:53:36.110Z,99305.31
2022-10-18T05:54:38.360Z,99298.41
2022-10-18T05:55:39.736Z,99297.31
2022-10-18T05:56:41.187Z,99301.88
2022-10-18T05:57:42.580Z,99299.22
2022-10-18T05:58:44.106Z,99297.78
2022-10-18T05:59:45.442Z,99297.19
2022-10-18T06:00:46.793Z,99298.28
2022-10-18T06:01:48.124Z,99305.97
2022-10-18T06:02:49.498Z,99307.69
2022-10-18T06:03:50.861Z,99302.34
2022-10-18T06:04:52.221Z,99309.06
2022-10-18T06:05:53.750Z,99305.94
2022-10-18T06:06:55.080Z,99311.59
2022-10-18T06:07:56.809Z,99308.91
2022-10-18T06:08:58.385Z,99306.25
2022-10-18T06:09:59.741Z,99310.47
2022-10-18T06:11:06.181Z,99311.25
2022-10-18T06:12:07.480Z,99309.38
2022-10-18T06:13:08.815Z,99312.84
2022-10-18T06:14:10.138Z,99309.06
2022-10-18T06:15:11.480Z,99311.72
2022-10-18T06:16:13.984Z,99309.88
2022-10-18T06:17:15.330Z,99311.44
2022-10-18T06:18:16.656Z,99312.22
2022-10-18T06:19:18.035Z,99311.13
2022-10-18T06:20:19.354Z,99307.38
2022-10-18T06:21:21.265Z,99310.22
2022-10-18T06:22:22.594Z,99308.00
2022-10-18T06:23:23.903Z,99310.84
2022-10-18T06:24:25.299Z,99308.69
2022-10-18T06:25:26.673Z,99309.94
2022-10-18T06:26:28.377Z,99309.34
2022-10-18T06:27:30.053Z,99305.41
2022-10-18T06:28:33.863Z,99308.72
2022-10-18T06:29:35.632Z,99310.97
2022-10-18T06:30:36.970Z,99307.38
2022-10-18T06:31:38.326Z,99310.41
2022-10-18T06:32:39.664Z,99316.69
2022-10-18T06:33:41.001Z,99319.22
2022-10-18T06:34:42.420Z,99316.72
2022-10-18T06:35:43.778Z,99317.34
2022-10-18T06:36:45.205Z,99312.66
2022-10-18T06:37:46.530Z,99307.94
2022-10-18T06:38:48.150Z,99315.00
2022-10-18T06:39:49.451Z,99317.53
2022-10-18T06:40:50.824Z,99309.81
2022-10-18T06:41:52.303Z,99317.38
2022-10-18T06:43:00.200Z,99311.56
2022-10-18T06:44:07.298Z,99310.63
2022-10-18T06:45:08.862Z,99314.72
2022-10-18T06:46:10.291Z,99318.31
2022-10-18T06:47:11.632Z,99321.50
2022-10-18T06:48:13.014Z,99317.53
2022-10-18T06:49:18.234Z,99324.28
2022-10-18T06:50:20.583Z,99323.81
2022-10-18T06:51:21.872Z,99321.28
2022-10-18T06:52:23.194Z,99334.50
2022-10-18T06:53:25.101Z,99332.31
2022-10-18T06:54:26.430Z,99335.91
2022-10-18T06:55:27.785Z,99337.94
2022-10-18T06:56:29.376Z,99334.31
2022-10-18T06:57:30.737Z,99335.63
2022-10-18T06:58:32.524Z,99334.50
2022-10-18T06:59:33.867Z,99342.22
2022-10-18T07:00:35.840Z,99335.91
2022-10-18T07:01:37.225Z,99330.56
2022-10-18T07:02:38.582Z,99334.81
2022-10-18T07:03:40.063Z,99335.59
2022-10-18T07:04:41.931Z,99330.22
2022-10-18T07:05:43.301Z,99330.72
2022-10-18T07:06:44.620Z,99324.88
2022-10-18T07:07:45.921Z,99325.03
2022-10-18T07:08:47.939Z,99330.53
2022-10-18T07:09:49.283Z,99321.38
2022-10-18T07:10:51.202Z,99329.88
2022-10-18T07:11:52.509Z,99331.44
2022-10-18T07:13:07.969Z,99328.47
2022-10-18T07:14:16.437Z,99328.59
2022-10-18T07:15:17.970Z,99331.75
2022-10-18T07:16:19.406Z,99331.13
2022-10-18T07:17:20.885Z,99333.63
2022-10-18T07:18:22.222Z,99331.38
2022-10-18T07:19:23.519Z,99337.69
2022-10-18T07:20:24.881Z,99338.13
2022-10-18T07:21:26.601Z,99344.75
2022-10-18T07:22:30.279Z,99345.34
2022-10-18T07:23:32.911Z,99343.72
2022-10-18T07:24:34.346Z,99341.97
2022-10-18T07:25:35.768Z,99342.13
2022-10-18T07:26:37.136Z,99342.28
2022-10-18T07:27:39.600Z,99347.75
2022-10-18T07:28:41.539Z,99347.44
2022-10-18T07:29:42.945Z,99341.75
2022-10-18T07:30:44.274Z,99345.69
2022-10-18T07:31:45.615Z,99340.47
2022-10-18T07:32:46.966Z,99342.50
2022-10-18T07:33:48.272Z,99346.88
2022-10-18T07:34:49.710Z,99341.97
2022-10-18T07:35:51.097Z,99343.88
2022-10-18T07:36:52.409Z,99345.44
2022-10-18T07:37:53.728Z,99351.28
2022-10-18T07:38:55.086Z,99342.47
2022-10-18T07:39:56.478Z,99350.16
2022-10-18T07:40:58.718Z,99354.41
2022-10-18T07:42:00.028Z,99352.19
2022-10-18T07:43:04.603Z,99348.06
2022-10-18T07:44:06.392Z,99350.28
2022-10-18T07:45:08.005Z,99341.91
2022-10-18T07:46:09.336Z,99346.63
2022-10-18T07:47:10.712Z,99342.06
2022-10-18T07:48:12.017Z,99342.63
2022-10-18T07:49:13.364Z,99340.88
2022-10-18T07:50:14.735Z,99341.47
2022-10-18T07:51:16.425Z,99347.41
2022-10-18T07:52:17.749Z,99343.75
2022-10-18T07:53:19.076Z,99350.47
2022-10-18T07:54:20.449Z,99350.28
2022-10-18T07:55:21.887Z,99352.44
2022-10-18T07:56:23.252Z,99347.97
2022-10-18T07:57:24.597Z,99353.94
2022-10-18T07:58:25.966Z,99346.91
2022-10-18T07:59:27.278Z,99352.75
2022-10-18T08:00:28.629Z,99358.22
2022-10-18T08:01:30.048Z,99353.00
2022-10-18T08:02:31.418Z,99357.59
2022-10-18T08:03:33.094Z,99353.00
2022-10-18T08:04:34.442Z,99350.31
2022-10-18T08:05:35.787Z,99359.94
2022-10-18T08:06:37.255Z,99358.34
2022-10-18T08:07:38.565Z,99361.50
2022-10-18T08:08:40.347Z,99360.41
2022-10-18T08:09:41.682Z,99366.53
2022-10-18T08:10:43.005Z,99367.78
2022-10-18T08:11:44.310Z,99369.03
2022-10-18T08:12:45.618Z,99369.31
2022-10-18T08:13:47.041Z,99371.69
2022-10-18T08:14:48.378Z,99372.50
2022-10-18T08:15:49.715Z,99375.94
2022-10-18T08:16:51.047Z,99377.84
2022-10-18T08:17:52.512Z,99382.09
2022-10-18T08:18:54.075Z,99380.19
2022-10-18T08:20:11.857Z,99374.06
2022-10-18T08:21:14.642Z,99372.94
2022-10-18T08:22:15.953Z,99381.75
2022-10-18T08:23:17.259Z,99377.97
2022-10-18T08:24:18.585Z,99381.44
2022-10-18T08:25:20.023Z,99374.19
2022-10-18T08:26:22.465Z,99386.91
2022-10-18T08:27:23.784Z,99386.28
2022-10-18T08:28:25.167Z,99390.53
2022-10-18T08:29:29.374Z,99392.91
2022-10-18T08:30:33.884Z,99394.13
2022-10-18T08:31:35.218Z,99391.56
2022-10-18T08:32:36.634Z,99401.00
2022-10-18T08:33:38.310Z,99392.28
2022-10-18T08:34:39.755Z,99395.06
2022-10-18T08:35:41.120Z,99393.31
2022-10-18T08:36:42.484Z,99396.13
2022-10-18T08:37:43.862Z,99401.47
2022-10-18T08:38:45.190Z,99400.06
2022-10-18T08:39:46.544Z,99400.50
2022-10-18T08:40:47.882Z,99394.00
2022-10-18T08:41:56.562Z,99399.94
2022-10-18T08:43:01.627Z,99396.81
2022-10-18T08:44:09.002Z,99393.78
2022-10-18T08:45:17.731Z,99388.88
2022-10-18T08:46:32.557Z,99391.09
2022-10-18T08:47:35.463Z,99396.91
2022-10-18T08:48:44.916Z,99394.69
2022-10-18T08:49:51.584Z,99405.22
2022-10-18T08:50:54.116Z,99399.50
2022-10-18T08:51:57.222Z,99401.84
2022-10-18T08:53:05.669Z,99404.00
2022-10-18T08:54:22.197Z,99394.81
2022-10-18T08:55:26.252Z,99405.56
2022-10-18T08:56:27.601Z,99410.59
2022-10-18T08:57:30.621Z,99406.47
2022-10-18T08:58:32.684Z,99408.34
2022-10-18T08:59:38.192Z,99410.84
2022-10-18T09:00:44.409Z,99410.63
2022-10-18T09:02:15.243Z,99408.16
2022-10-18T09:03:35.471Z,99424.06
2022-10-18T09:04:46.601Z,99417.44
2022-10-18T09:06:06.438Z,99413.88
2022-10-18T09:07:07.836Z,99431.00
2022-10-18T09:08:20.653Z,99424.53
2022-10-18T09:09:57.180Z,99430.34
2022-10-18T09:11:17.290Z,99424.53
2022-10-18T09:12:37.057Z,99424.84
2022-10-18T09:13:56.838Z,99430.56
2022-10-18T09:15:09.326Z,99429.44
2022-10-18T09:16:17.036Z,99427.22
2022-10-18T09:17:37.162Z,99430.88
2022-10-18T09:18:41.267Z,99429.75
2022-10-18T09:20:05.805Z,99426.75
2022-10-18T09:21:17.211Z,99433.81
2022-10-18T09:22:19.316Z,99433.81
2022-10-18T09:23:34.663Z,99427.22
2022-10-18T09:24:45.036Z,99428.44
2022-10-18T09:25:48.280Z,99423.16
2022-10-18T09:26:53.381Z,99432.44
2022-10-18T09:27:56.490Z,99429.00
2022-10-18T09:29:00.756Z,99432.47
2022-10-18T09:30:19.181Z,99430.56
2022-10-18T09:31:30.965Z,99427.63
2022-10-18T09:32:32.384Z,99425.94
2022-10-18T09:33:44.443Z,99430.22
2022-10-18T09:35:04.135Z,99427.06
2022-10-18T09:36:07.630Z,99428.19
2022-10-18T09:37:12.394Z,99428.75
2022-10-18T09:38:15.905Z,99424.06
2022-10-18T09:39:30.118Z,99421.94
2022-10-18T09:40:35.340Z,99422.47
2022-10-18T09:41:50.903Z,99425.94
2022-10-18T09:42:54.697Z,99427.06
2022-10-18T09:44:04.787Z,99424.22
2022-10-18T09:45:15.218Z,99427.25
2022-10-18T09:46:19.046Z,99419.84
2022-10-18T09:47:26.251Z,99420.63
2022-10-18T09:48:29.519Z,99417.03
2022-10-18T09:49:32.699Z,99420.19
2022-10-18T09:50:39.342Z,99423.44
2022-10-18T09:51:41.575Z,99427.28
2022-10-18T09:52:46.281Z,99427.63
2022-10-18T09:54:06.507Z,99430.53
2022-10-18T09:55:37.273Z,99429.44
2022-10-18T09:56:41.050Z,99426.06
2022-10-18T09:57:47.091Z,99427.41
2022-10-18T09:58:49.540Z,99429.31
2022-10-18T09:59:51.186Z,99426.53
2022-10-18T10:00:52.838Z,99431.31
2022-10-18T10:01:54.261Z,99421.81
2022-10-18T10:02:55.581Z,99428.44
2022-10-18T10:03:57.147Z,99430.91
2022-10-18T10:04:58.518Z,99426.41
2022-10-18T10:06:11.850Z,99428.97
2022-10-18T10:07:36.795Z,99427.78
2022-10-18T10:08:42.478Z,99428.09
2022-10-18T10:09:48.398Z,99429.44
2022-10-18T10:10:49.789Z,99432.81
2022-10-18T10:11:51.806Z,99424.50
2022-10-18T10:13:22.403Z,99431.63
2022-10-18T10:14:25.110Z,99433.53
2022-10-18T10:15:28.304Z,99433.34
2022-10-18T10:16:32.822Z,99431.75
2022-10-18T10:17:34.940Z,99432.66
2022-10-18T10:18:38.764Z,99432.41
2022-10-18T10:19:57.075Z,99432.16
2022-10-18T10:20:59.334Z,99430.03
2022-10-18T10:22:03.799Z,99430.34
2022-10-18T10:23:08.049Z,99432.91
2022-10-18T10:24:26.169Z,99434.22
2022-10-18T10:25:34.695Z,99429.63
2022-10-18T10:26:36.770Z,99429.81
2022-10-18T10:27:40.478Z,99425.44
2022-10-18T10:28:42.416Z,99418.94
2022-10-18T10:29:49.062Z,99418.94
2022-10-18T10:30:50.849Z,99425.56
2022-10-18T10:32:02.572Z,99421.38
2022-10-18T10:33:04.649Z,99415.19
2022-10-18T10:34:06.009Z,99420.00
2022-10-18T10:35:34.076Z,99417.31
2022-10-18T10:36:59.967Z,99408.50
2022-10-18T10:38:01.419Z,99411.31
2022-10-18T10:39:07.040Z,99413.22
2022-10-18T10:40:24.101Z,99409.28
2022-10-18T10:41:29.560Z,99409.66
2022-10-18T10:42:32.594Z,99407.31
2022-10-18T10:43:38.790Z,99412.25
2022-10-18T10:44:52.264Z,99409.56
2022-10-18T10:46:01.513Z,99412.88
2022-10-18T10:47:03.454Z,99414.09
2022-10-18T10:48:07.210Z,99414.88
2022-10-18T10:51:01.764Z,99418.34
2022-10-18T10:52:15.391Z,99412.53
2022-10-18T10:53:29.639Z,99411.56
2022-10-18T10:54:32.071Z,99410.00
2022-10-18T10:55:35.833Z,99412.00
2022-10-18T10:56:49.814Z,99412.34
2022-10-18T10:57:52.453Z,99408.63
2022-10-18T10:58:54.623Z,99412.53
2022-10-18T10:59:57.634Z,99414.16
2022-10-18T11:01:16.223Z,99417.84
2022-10-18T11:02:20.735Z,99417.22
2022-10-18T11:03:30.282Z,99411.22
2022-10-18T11:04:31.968Z,99413.31
2022-10-18T11:05:41.962Z,99414.28
2022-10-18T11:06:46.465Z,99413.56
2022-10-18T11:07:48.970Z,99415.47
2022-10-18T11:08:50.703Z,99413.91
2022-10-18T11:10:03.454Z,99412.88
2022-10-18T11:11:22.903Z,99414.88
2022-10-18T11:12:28.444Z,99400.44
2022-10-18T11:13:45.609Z,99408.53
2022-10-18T11:14:52.654Z,99410.63
2022-10-18T11:15:57.124Z,99405.38
2022-10-18T11:17:17.382Z,99408.94
2022-10-18T11:18:25.473Z,99411.19
2022-10-18T11:19:35.974Z,99414.31
2022-10-18T11:20:40.875Z,99399.41
2022-10-18T11:21:42.692Z,99405.25
2022-10-18T11:22:53.240Z,99410.38
2022-10-18T11:23:54.722Z,99400.41
2022-10-18T11:24:56.070Z,99407.81
2022-10-18T11:26:12.854Z,99404.84
2022-10-18T11:27:23.213Z,99399.06
2022-10-18T11:28:33.688Z,99402.34
2022-10-18T11:29:52.036Z,99401.56
2022-10-18T11:31:07.665Z,99396.97
2022-10-18T11:32:32.259Z,99393.91
2022-10-18T11:34:07.675Z,99388.00
2022-10-18T11:35:33.762Z,99399.16
2022-10-18T11:36:54.539Z,99395.59
2022-10-18T11:38:22.521Z,99400.66
2022-10-18T11:39:23.833Z,99406.34
2022-10-18T11:40:30.906Z,99408.09
2022-10-18T11:41:43.150Z,99402.00
2022-10-18T11:42:47.283Z,99400.09
2022-10-18T11:44:02.128Z,99407.31
2022-10-18T11:45:10.703Z,99407.31
2022-10-18T11:46:12.021Z,99408.09
2022-10-18T11:47:23.629Z,99404.91
2022-10-18T11:48:34.115Z,99401.34
2022-10-18T11:49:38.426Z,99399.69
2022-10-18T11:50:42.547Z,99407.38
2022-10-18T11:52:07.298Z,99398.06
2022-10-18T11:53:09.002Z,99408.06
2022-10-18T11:54:19.398Z,99405.38
2022-10-18T11:55:30.298Z,99404.41
2022-10-18T11:56:36.978Z,99417.28
2022-10-18T11:57:53.450Z,99412.34
2022-10-18T11:59:00.822Z,99413.28
2022-10-18T12:00:08.381Z,99406.97
2022-10-18T12:01:15.806Z,99406.50
2022-10-18T12:02:36.405Z,99410.59
2022-10-18T12:04:04.238Z,99403.94
2022-10-18T12:06:38.718Z,99406.50
2022-10-18T12:07:43.835Z,99400.97
2022-10-18T12:08:50.663Z,99407.41
2022-10-18T12:09:54.424Z,99404.97
2022-10-18T12:11:05.127Z,99403.94
2022-10-18T12:12:07.044Z,99404.50
2022-10-18T12:13:12.626Z,99409.91
2022-10-18T12:14:22.481Z,99406.78
2022-10-18T12:15:25.339Z,99401.31
2022-10-18T12:16:50.491Z,99402.53
2022-10-18T12:17:54.371Z,99400.63
2022-10-18T12:18:58.331Z,99399.13
2022-10-18T12:20:04.630Z,99393.41
2022-10-18T12:21:06.296Z,99392.88
2022-10-18T12:22:18.197Z,99397.50
2022-10-18T12:23:20.664Z,99389.41
2022-10-18T12:24:27.478Z,99388.94
2022-10-18T12:25:32.877Z,99396.97
2022-10-18T12:26:35.277Z,99392.00
2022-10-18T12:27:39.568Z,99392.09
2022-10-18T12:29:00.520Z,99388.63
2022-10-18T12:30:11.009Z,99392.69
2022-10-18T12:31:21.410Z,99386.44
2022-10-18T12:32:26.753Z,99396.88
2022-10-18T12:33:30.532Z,99391.38
2022-10-18T12:34:35.108Z,99386.44
2022-10-18T12:35:51.743Z,99380.00
2022-10-18T12:37:11.771Z,99386.44
2022-10-18T12:38:13.296Z,99394.00
2022-10-18T12:39:29.153Z,99383.50
2022-10-18T12:40:44.515Z,99381.91
2022-10-18T12:41:47.181Z,99383.38
2022-10-18T12:42:50.131Z,99386.53
2022-10-18T12:43:53.027Z,99385.38
2022-10-18T12:45:18.448Z,99386.53
2022-10-18T12:46:19.826Z,99384.25
2022-10-18T12:47:25.215Z,99391.47
2022-10-18T12:48:29.588Z,99382.19
2022-10-18T12:49:32.447Z,99385.22
2022-10-18T12:50:41.930Z,99385.66
2022-10-18T12:51:53.665Z,99383.09
2022-10-18T12:53:02.609Z,99384.25
2022-10-18T12:54:03.919Z,99380.41
2022-10-18T12:55:05.686Z,99376.25
2022-10-18T12:56:25.956Z,99379.00
2022-10-18T12:57:47.350Z,99373.63